• Join FlightAware (Why Join?)
  • Login
  • US Flag 
02:12PM EDT


 

Airport Tracker/Info


-or-


 

Live Flight TrackerFlight Track Log ✈ SKW2980 ✈ 03-May-2013 ✈ KPHX - KNYL

Flight Track Log - Related Links

Times and Time Zones

All times are in EDT time to prevent confusion due to time zone crossing. See the SKW2980 flight status page for this flight to view local times or setup timezone preferences in your user account.

Time Position Orientation Groundspeed Altitude Reporting Facility
EDT Latitude Longitude Course Direction KTS MPH feet Rate Location/Type
01:06AM 33.4333 -111.9833 90° East 166 191 1,800  Level Phoenix TRACON
01:07AM 33.4333 -111.9333 90° East 175 201 3,300 1,620 Climbing Phoenix TRACON
01:08AM 33.4333 -111.8667 90° East 240 276 4,800 1,500 Climbing Phoenix TRACON
01:09AM 33.4014 -111.8403 145° Southeast 260 299 5,800 2,220 Climbing Albuquerque Center
01:10AM 33.3522 -111.9050 228° Southwest 273 314 8,600 2,280 Climbing Albuquerque Center
01:11AM 33.3006 -112.0067 239° Southwest 309 356 10,500 1,980 Climbing Albuquerque Center
01:12AM 33.2469 -112.1092 238° Southwest 350 403 12,700 1,740 Climbing Albuquerque Center
01:13AM 33.1947 -112.2106 238° Southwest 367 422 14,100 1,440 Climbing Albuquerque Center
01:14AM 33.1400 -112.3178 239° Southwest 377 434 15,700 900 Climbing Albuquerque Center
01:15AM 33.0897 -112.4147 238° Southwest 390 449 16,000 120 Climbing Albuquerque Center
01:16AM 33.0311 -112.5289 239° Southwest 403 464 16,000  Level Albuquerque Center
01:17AM 32.9719 -112.6439 239° Southwest 408 470 16,000  Level Albuquerque Center
01:18AM 32.9436 -112.7733 255° West 406 467 16,000  Level Albuquerque Center
01:19AM 32.9222 -112.9322 261° West 408 470 16,000  Level Albuquerque Center
01:20AM 32.9033 -113.0647 260° West 410 472 16,000  Level Albuquerque Center
01:21AM 32.8856 -113.1975 261° West 410 472 16,000 -60 Level Albuquerque Center
01:22AM 32.8675 -113.3308 261° West 410 472 15,900 -60 Descending Albuquerque Center
01:23AM 32.8489 -113.4642 261° West 412 474 15,900  Level Albuquerque Center
01:24AM 32.8303 -113.5969 261° West 411 473 15,900  Level Albuquerque Center
01:25AM 32.8111 -113.7303 260° West 411 473 15,900 -300 Level Albuquerque Center
01:26AM 32.7914 -113.8617 260° West 409 471 15,400 -780 Descending Albuquerque Center
01:27AM 32.7744 -113.9881 261° West 401 461 14,400 -1,260 Descending Albuquerque Center
01:28AM 32.7717 -114.1028 268° West 376 433 12,900 -1,620 Descending Albuquerque Center
01:28AM 32.7744 -114.1317 277° West 357 411 12,300 -2,040 Descending Los Angeles Center
01:29AM 32.7747 -114.2350 270° West 324 373 10,300 -1,980 Descending Los Angeles Center
01:30AM 32.7733 -114.3286 269° West 291 335 8,300 -2,160 Descending Los Angeles Center
01:31AM 32.7697 -114.4358 268° West 259 298 5,800 -2,160 Descending Los Angeles Center
01:32AM 32.7703 -114.5144 271° West 256 295 4,000 -1,620 Descending Los Angeles Center
01:33AM 32.7547 -114.5828 255° West 221 254 2,600 -1,380 Descending Los Angeles Center